Elbert, Colorado
Current Conditions -  °F | °C
As of 1:55 AM on Sunday 23 Nov 2014 (Local Time) from KMNH Reporting Station
Broken Clouds Broken Clouds  
Wind Chill: -3°   Ceiling: 10000
Heat Index:   Visibility: 10mi
Dew Point: -5°   Wind: 6mph
Humidity: 69%   Direction: 20°NNE
Pressure: 29.6"   Gusts: NA
Location:  39.22°N, 104.54°W
Report Text: KMNH 230855Z AUTO 02005KT 10SM SCT060 SCT080 BKN100 00/M05 A2960 RMK AO2
Loading
Personal Weather Stations






























Interactive Weather Map New forecast layout! Learn more

10-Day Weather Forecast

Advertisements
Track Severe Weather on mobile